Time;durP1;ratioP1;P1;durP2;ratioP2;P2;SDS_P1;SDS_P2;PMS_P1;PMS_P2;Temp;Humidity;BMP_temperature;BMP_pressure;BME280_temperature;BME280_humidity;BME280_pressure;Samples;Min_cycle;Max_cycle;Signal;HPM_P1;HPM_P2
2023/09/20 00:01:40;;;;;;;13.68;4.80;;;19.90;99.90;;;;;;5028737;28;20041;-72
2023/09/20 00:04:07;;;;;;;10.10;4.10;;;19.90;99.90;;;;;;5029690;28;20036;-72
2023/09/20 00:06:33;;;;;;;10.60;4.72;;;19.90;99.90;;;;;;5027880;28;20037;-73
2023/09/20 00:09:01;;;;;;;11.27;4.30;;;19.80;99.90;;;;;;5036609;28;20021;-71
2023/09/20 00:11:27;;;;;;;11.48;4.40;;;19.70;99.90;;;;;;5033096;28;20100;-72
2023/09/20 00:13:53;;;;;;;15.30;4.47;;;19.60;99.90;;;;;;5033144;28;20101;-72
2023/09/20 00:16:19;;;;;;;15.50;4.85;;;19.50;99.90;;;;;;5032731;28;20029;-72
2023/09/20 00:18:45;;;;;;;11.15;3.92;;;19.50;99.90;;;;;;5029406;28;20048;-72
2023/09/20 00:21:11;;;;;;;11.90;4.75;;;19.50;99.90;;;;;;5024936;28;20061;-72
2023/09/20 00:23:37;;;;;;;13.63;4.65;;;19.40;99.90;;;;;;5028763;28;20087;-72
2023/09/20 00:26:03;;;;;;;9.88;4.50;;;19.50;99.90;;;;;;5032686;28;20025;-71
2023/09/20 00:28:31;;;;;;;10.18;4.13;;;19.40;99.90;;;;;;5032599;28;20041;-72
2023/09/20 00:30:58;;;;;;;11.30;3.58;;;19.40;99.90;;;;;;5031695;28;20037;-72
2023/09/20 00:33:24;;;;;;;12.65;4.75;;;19.30;99.90;;;;;;5032539;28;20022;-72
2023/09/20 00:35:52;;;;;;;13.73;5.10;;;19.30;99.90;;;;;;5035279;28;20052;-72
2023/09/20 00:38:18;;;;;;;13.88;5.53;;;19.10;99.90;;;;;;5030682;28;20428;-72
2023/09/20 00:40:44;;;;;;;9.57;4.68;;;19.10;99.90;;;;;;5030685;28;20083;-72
2023/09/20 00:43:13;;;;;;;11.13;4.32;;;19.00;99.90;;;;;;5031294;28;20092;-72
2023/09/20 00:45:40;;;;;;;15.85;5.15;;;19.10;99.90;;;;;;5063779;28;20041;-72
2023/09/20 00:48:09;;;;;;;13.57;5.43;;;19.10;99.90;;;;;;5032387;28;20063;-72
2023/09/20 00:50:35;;;;;;;14.40;4.90;;;19.20;99.90;;;;;;5027802;28;20052;-72
2023/09/20 00:53:06;;;;;;;14.18;5.30;;;19.10;99.90;;;;;;5018056;28;20514;-72
2023/09/20 00:55:34;;;;;;;14.65;4.93;;;19.10;99.90;;;;;;5045733;28;20030;-72
2023/09/20 00:58:10;;;;;;;11.80;5.05;;;19.10;99.90;;;;;;5031728;28;20034;-72
2023/09/20 01:00:43;;;;;;;14.00;5.70;;;19.00;99.90;;;;;;5031296;28;20033;-73
2023/09/20 01:03:11;;;;;;;14.43;4.85;;;19.00;99.90;;;;;;5031805;28;20029;-72
2023/09/20 01:05:39;;;;;;;12.05;4.88;;;19.00;99.90;;;;;;5032180;28;20110;-72
2023/09/20 01:08:08;;;;;;;10.48;4.93;;;19.00;99.90;;;;;;5031273;28;20555;-72
2023/09/20 01:10:38;;;;;;;14.93;4.63;;;19.00;99.90;;;;;;5031004;28;20033;-72
2023/09/20 01:13:09;;;;;;;13.25;4.85;;;18.90;99.90;;;;;;5031370;28;20025;-72
2023/09/20 01:15:37;;;;;;;18.15;5.43;;;18.90;99.90;;;;;;5030772;28;20022;-73
2023/09/20 01:18:04;;;;;;;13.45;4.60;;;18.90;99.90;;;;;;5030966;28;20021;-72
2023/09/20 01:20:32;;;;;;;7.00;4.22;;;18.90;99.90;;;;;;5031883;28;20108;-72
2023/09/20 01:22:59;;;;;;;12.88;5.15;;;18.90;99.90;;;;;;5031274;28;20090;-71
2023/09/20 01:25:27;;;;;;;9.63;4.47;;;18.80;99.90;;;;;;5029497;28;20041;-72
2023/09/20 01:27:58;;;;;;;8.38;3.85;;;;;;;;;;5030613;28;20021;-72
2023/09/20 01:30:25;;;;;;;11.90;5.40;;;18.80;99.90;;;;;;5027030;28;20487;-72
2023/09/20 01:32:55;;;;;;;11.38;5.18;;;;;;;;;;5030053;28;20082;-72
2023/09/20 01:35:22;;;;;;;10.00;4.70;;;18.60;99.90;;;;;;5030386;28;20037;-71
2023/09/20 01:37:51;;;;;;;10.75;5.10;;;18.60;99.90;;;;;;5029414;28;20107;-72
2023/09/20 01:40:19;;;;;;;17.95;5.00;;;18.70;99.90;;;;;;5031485;28;20028;-72
2023/09/20 01:42:49;;;;;;;9.90;4.82;;;18.60;99.90;;;;;;5063057;28;20059;-72
2023/09/20 01:45:18;;;;;;;16.60;5.13;;;18.60;99.90;;;;;;5015227;28;20034;-72
2023/09/20 01:47:44;;;;;;;9.02;4.43;;;;;;;;;;5015655;28;20033;-72
2023/09/20 01:50:19;;;;;;;13.60;5.30;;;;;;;;;;5013290;28;20080;-72
2023/09/20 01:52:49;;;;;;;11.27;4.32;;;;;;;;;;5016973;28;20104;-72
2023/09/20 01:55:16;;;;;;;12.48;4.95;;;;;;;;;;5054591;28;20033;-72
2023/09/20 01:57:47;;;;;;;8.70;4.55;;;18.10;99.90;;;;;;5063059;28;20043;-72
2023/09/20 02:00:22;;;;;;;14.00;5.30;;;;;;;;;;5029866;28;20025;-72
2023/09/20 02:02:54;;;;;;;10.63;4.85;;;18.10;99.90;;;;;;5036895;28;20116;-72
2023/09/20 02:05:21;;;;;;;9.27;5.50;;;18.30;99.90;;;;;;5052626;28;20069;-71
2023/09/20 02:07:48;;;;;;;14.25;5.45;;;18.20;99.90;;;;;;5050356;28;20023;-72
2023/09/20 02:10:16;;;;;;;13.00;5.00;;;18.10;99.90;;;;;;5052610;28;20044;-72
2023/09/20 02:12:54;;;;;;;11.73;5.25;;;18.10;99.90;;;;;;5050285;28;20020;-72
2023/09/20 02:15:41;;;;;;;12.90;4.80;;;18.20;99.90;;;;;;5050916;28;20082;-72
2023/09/20 02:18:09;;;;;;;15.38;5.50;;;18.20;99.90;;;;;;5052243;28;20048;-72
2023/09/20 02:20:36;;;;;;;11.73;4.82;;;18.20;99.90;;;;;;5050553;28;20025;-72
2023/09/20 02:23:04;;;;;;;8.30;4.18;;;18.10;99.90;;;;;;5050280;28;20115;-72
2023/09/20 02:25:30;;;;;;;9.90;4.20;;;18.20;99.90;;;;;;5051109;28;20052;-72
2023/09/20 02:27:58;;;;;;;16.67;4.40;;;18.10;99.90;;;;;;5051855;28;20013;-72
2023/09/20 02:30:28;;;;;;;8.68;4.28;;;18.00;99.90;;;;;;5051947;28;20104;-72
2023/09/20 02:32:58;;;;;;;12.35;4.45;;;18.10;99.90;;;;;;5050412;28;20032;-72
2023/09/20 02:35:25;;;;;;;12.35;5.43;;;18.10;99.90;;;;;;5050243;28;20087;-71
2023/09/20 02:37:52;;;;;;;15.15;4.50;;;18.10;99.90;;;;;;5040836;28;20021;-72
2023/09/20 02:40:23;;;;;;;10.20;4.05;;;18.00;99.90;;;;;;5051760;28;20025;-71
2023/09/20 02:42:54;;;;;;;10.30;4.43;;;18.10;99.90;;;;;;5050336;28;20068;-72
2023/09/20 02:45:24;;;;;;;13.57;4.82;;;18.00;99.90;;;;;;5050110;28;20521;-72
2023/09/20 02:47:51;;;;;;;14.65;5.20;;;17.80;99.90;;;;;;5051931;28;20388;-72
2023/09/20 02:50:19;;;;;;;14.70;5.38;;;17.80;99.90;;;;;;5050963;28;20041;-72
2023/09/20 02:52:46;;;;;;;15.35;5.85;;;17.80;99.90;;;;;;5033207;28;20108;-72
2023/09/20 02:55:15;;;;;;;10.05;5.03;;;17.90;99.90;;;;;;5047937;28;20040;-72
2023/09/20 02:57:42;;;;;;;10.95;4.30;;;18.00;99.90;;;;;;5037283;28;20018;-72
2023/09/20 03:00:16;;;;;;;10.13;4.53;;;18.10;99.90;;;;;;5049920;28;20060;-73
2023/09/20 03:02:49;;;;;;;12.93;5.53;;;18.10;99.90;;;;;;5049715;28;20384;-72
2023/09/20 03:05:17;;;;;;;9.57;4.47;;;18.10;99.90;;;;;;5034170;28;20065;-72
2023/09/20 03:07:47;;;;;;;14.65;5.07;;;18.20;99.90;;;;;;5031549;28;20026;-72
2023/09/20 03:10:15;;;;;;;20.75;5.43;;;18.20;99.90;;;;;;5045584;28;20503;-72
2023/09/20 03:12:44;;;;;;;10.57;4.97;;;;;;;;;;5044050;28;20084;-72
2023/09/20 03:15:12;;;;;;;13.68;4.97;;;18.00;99.90;;;;;;5049877;28;20033;-72
2023/09/20 03:17:39;;;;;;;14.77;5.68;;;18.10;99.90;;;;;;5043636;28;20507;-72
2023/09/20 03:20:13;;;;;;;14.90;5.47;;;18.20;99.90;;;;;;5050072;28;20439;-72
2023/09/20 03:22:41;;;;;;;13.40;5.13;;;18.20;99.90;;;;;;5047538;28;20700;-73
2023/09/20 03:25:11;;;;;;;14.30;4.95;;;18.10;99.90;;;;;;5047222;28;20048;-73
2023/09/20 03:27:40;;;;;;;24.17;5.78;;;18.10;99.90;;;;;;5050543;28;20049;-73
2023/09/20 03:30:10;;;;;;;10.50;5.35;;;18.10;99.90;;;;;;5049658;28;20036;-72
2023/09/20 03:32:39;;;;;;;14.57;5.53;;;18.20;99.90;;;;;;5051279;28;20025;-72
2023/09/20 03:35:06;;;;;;;13.32;6.40;;;18.20;99.90;;;;;;5050227;28;20028;-72
2023/09/20 03:37:33;;;;;;;12.68;5.60;;;18.20;99.90;;;;;;5048787;28;20029;-72
2023/09/20 03:39:59;;;;;;;12.75;5.43;;;18.20;99.90;;;;;;5045729;28;20037;-72
2023/09/20 03:42:25;;;;;;;14.98;5.43;;;18.20;99.90;;;;;;5035954;28;20021;-72
2023/09/20 03:44:51;;;;;;;15.02;5.60;;;18.30;99.90;;;;;;5052351;28;20033;-71
2023/09/20 03:47:17;;;;;;;9.68;4.63;;;18.30;99.90;;;;;;5041667;28;20018;-72
2023/09/20 03:49:43;;;;;;;14.38;5.43;;;18.20;99.90;;;;;;5036035;28;20104;-72
2023/09/20 03:52:09;;;;;;;13.50;5.78;;;18.20;99.90;;;;;;5050494;28;20033;-72
2023/09/20 03:54:35;;;;;;;13.85;5.45;;;18.10;99.90;;;;;;5085646;28;20104;-72
2023/09/20 03:57:02;;;;;;;12.40;5.70;;;18.10;99.90;;;;;;5038204;28;20163;-72
2023/09/20 03:59:31;;;;;;;18.48;6.88;;;18.10;99.90;;;;;;5033503;28;20030;-73
2023/09/20 04:02:00;;;;;;;17.38;5.78;;;;;;;;;;5033951;28;20029;-73
2023/09/20 04:04:26;;;;;;;12.10;5.65;;;18.10;99.90;;;;;;5034496;28;20390;-74
2023/09/20 04:06:52;;;;;;;12.65;5.72;;;18.20;99.90;;;;;;5047783;28;20030;-73
2023/09/20 04:09:20;;;;;;;10.15;5.68;;;18.10;99.90;;;;;;5044467;28;20059;-73
2023/09/20 04:11:47;;;;;;;16.13;5.97;;;18.10;99.90;;;;;;5047583;28;20074;-74
2023/09/20 04:14:12;;;;;;;16.83;6.03;;;18.20;99.90;;;;;;5054764;28;20039;-73
2023/09/20 04:16:40;;;;;;;13.48;6.90;;;18.10;99.90;;;;;;5041212;28;20112;-72
2023/09/20 04:19:06;;;;;;;10.23;5.55;;;18.20;99.90;;;;;;5039058;28;20055;-73
2023/09/20 04:21:33;;;;;;;14.45;5.20;;;18.20;99.90;;;;;;5064523;28;20021;-74
2023/09/20 04:23:59;;;;;;;13.75;5.90;;;18.20;99.90;;;;;;5050167;28;20091;-74
2023/09/20 04:26:25;;;;;;;15.63;6.28;;;18.20;99.90;;;;;;5051992;28;20029;-74
2023/09/20 04:28:51;;;;;;;19.15;6.35;;;18.30;99.90;;;;;;5052739;28;20025;-72
2023/09/20 04:31:17;;;;;;;15.10;6.68;;;18.20;99.90;;;;;;5037302;28;20030;-72
2023/09/20 04:33:43;;;;;;;16.48;6.50;;;18.10;99.90;;;;;;5050068;28;20090;-73
2023/09/20 04:36:10;;;;;;;16.00;6.32;;;18.20;99.90;;;;;;5047401;28;20362;-74
2023/09/20 04:38:35;;;;;;;11.43;5.70;;;18.20;99.90;;;;;;5050572;28;20036;-73
2023/09/20 04:41:02;;;;;;;15.15;6.43;;;18.50;99.90;;;;;;5039310;28;20032;-73
2023/09/20 04:43:28;;;;;;;16.98;6.80;;;18.70;99.90;;;;;;5038567;28;20037;-73
2023/09/20 04:45:55;;;;;;;18.23;6.43;;;18.80;99.90;;;;;;5043886;28;20036;-73
2023/09/20 04:48:21;;;;;;;19.00;7.20;;;19.10;99.90;;;;;;5052013;28;20032;-73
2023/09/20 04:50:51;;;;;;;16.65;5.88;;;19.70;99.90;;;;;;5044567;28;20029;-73
2023/09/20 04:53:17;;;;;;;15.13;5.70;;;19.50;99.90;;;;;;5043720;28;20037;-73
2023/09/20 04:55:43;;;;;;;12.40;6.35;;;19.30;99.90;;;;;;5038348;28;20024;-73
2023/09/20 04:58:10;;;;;;;19.42;7.22;;;19.10;99.90;;;;;;5039460;28;20055;-73
2023/09/20 05:00:37;;;;;;;20.30;8.38;;;19.00;99.90;;;;;;5043626;28;20495;-74
2023/09/20 05:03:04;;;;;;;14.23;8.48;;;18.90;99.90;;;;;;5050290;28;20056;-73
2023/09/20 05:05:30;;;;;;;10.25;5.68;;;18.80;99.90;;;;;;5031885;28;20059;-73
2023/09/20 05:07:56;;;;;;;15.18;5.65;;;18.90;99.90;;;;;;5050149;28;20017;-73
2023/09/20 05:10:23;;;;;;;15.27;5.10;;;18.90;99.90;;;;;;5042981;28;20032;-73
2023/09/20 05:12:49;;;;;;;11.10;5.63;;;18.90;99.90;;;;;;5040696;28;20100;-73
2023/09/20 05:15:15;;;;;;;20.05;7.85;;;18.90;99.90;;;;;;5048460;28;20498;-73
2023/09/20 05:17:43;;;;;;;15.05;8.23;;;18.90;99.90;;;;;;5027444;28;20038;-73
2023/09/20 05:20:14;;;;;;;14.85;8.35;;;18.80;99.90;;;;;;5032914;28;20480;-73
2023/09/20 05:22:43;;;;;;;17.92;9.07;;;18.90;99.90;;;;;;5033054;28;20032;-73
2023/09/20 05:25:09;;;;;;;19.73;8.32;;;18.70;99.90;;;;;;5032695;28;20041;-73
2023/09/20 05:27:37;;;;;;;15.90;7.97;;;18.90;99.90;;;;;;5032708;28;20030;-73
2023/09/20 05:30:03;;;;;;;13.35;7.50;;;19.00;99.90;;;;;;5063380;28;20040;-73
2023/09/20 05:32:29;;;;;;;13.32;7.40;;;19.10;99.90;;;;;;5032692;28;20028;-73
2023/09/20 05:34:55;;;;;;;13.73;6.72;;;19.20;99.90;;;;;;5040292;28;20364;-73
2023/09/20 05:37:21;;;;;;;11.93;6.32;;;19.20;99.90;;;;;;5051930;28;20032;-73
2023/09/20 05:39:48;;;;;;;13.27;6.57;;;19.20;99.90;;;;;;5035918;28;20025;-74
2023/09/20 05:42:15;;;;;;;12.32;5.90;;;19.20;99.90;;;;;;5035918;28;20033;-73
2023/09/20 05:44:41;;;;;;;20.48;6.55;;;19.40;99.90;;;;;;5033231;28;20509;-73
2023/09/20 05:47:09;;;;;;;20.10;7.60;;;19.50;99.90;;;;;;5032988;28;20021;-73
2023/09/20 05:49:36;;;;;;;19.38;8.43;;;19.60;99.90;;;;;;5033159;28;20421;-73
2023/09/20 05:52:05;;;;;;;19.60;10.70;;;19.70;99.90;;;;;;5032801;28;20026;-72
2023/09/20 05:54:32;;;;;;;19.05;10.88;;;19.80;99.90;;;;;;5036147;28;20021;-73
2023/09/20 05:56:59;;;;;;;18.75;10.07;;;19.70;99.90;;;;;;5052578;28;20036;-73
2023/09/20 05:59:26;;;;;;;18.45;8.57;;;19.70;99.90;;;;;;5039203;28;20380;-73
2023/09/20 06:01:53;;;;;;;14.45;7.78;;;19.80;99.90;;;;;;5052629;28;20082;-73
2023/09/20 06:04:21;;;;;;;13.68;7.45;;;20.00;99.90;;;;;;5051825;28;20539;-74
2023/09/20 06:06:47;;;;;;;13.52;6.53;;;19.90;99.90;;;;;;5052160;28;20025;-74
2023/09/20 06:09:14;;;;;;;15.05;6.28;;;20.10;99.90;;;;;;5052399;28;20029;-73
2023/09/20 06:11:39;;;;;;;17.38;6.43;;;20.30;99.90;;;;;;5051908;28;20013;-73
2023/09/20 06:14:05;;;;;;;9.95;5.45;;;20.50;99.90;;;;;;5052437;28;20099;-73
2023/09/20 06:16:31;;;;;;;22.23;5.82;;;20.80;99.90;;;;;;5052462;28;20095;-73
2023/09/20 06:18:57;;;;;;;13.38;4.95;;;20.70;99.90;;;;;;5052254;28;20044;-73
2023/09/20 06:21:23;;;;;;;12.52;5.22;;;20.70;99.90;;;;;;5051773;28;20013;-73
2023/09/20 06:23:49;;;;;;;17.45;5.63;;;20.90;99.90;;;;;;5052141;28;20067;-73
2023/09/20 06:26:15;;;;;;;13.98;4.85;;;21.10;99.90;;;;;;5051157;28;20029;-73
2023/09/20 06:28:42;;;;;;;16.63;6.25;;;21.30;99.90;;;;;;5052136;28;20100;-74
2023/09/20 06:31:16;;;;;;;13.57;6.03;;;21.50;99.90;;;;;;5051867;28;20024;-73
2023/09/20 06:33:46;;;;;;;18.05;6.65;;;21.70;99.90;;;;;;5051978;28;20066;-73
2023/09/20 06:36:17;;;;;;;16.20;6.78;;;21.80;99.90;;;;;;5027615;28;20117;-73
2023/09/20 06:38:43;;;;;;;15.25;7.03;;;22.00;99.90;;;;;;5046404;28;20025;-74
2023/09/20 06:41:09;;;;;;;13.55;7.40;;;22.00;99.90;;;;;;5051871;28;20025;-73
2023/09/20 06:43:36;;;;;;;12.25;6.53;;;22.10;99.90;;;;;;5051417;28;20503;-73
2023/09/20 06:46:05;;;;;;;13.95;6.60;;;22.30;99.90;;;;;;5052011;28;20544;-72
2023/09/20 06:48:31;;;;;;;18.27;7.88;;;;;;;;;;5051137;28;20623;-73
2023/09/20 06:50:57;;;;;;;17.90;8.48;;;22.50;99.90;;;;;;5051734;28;20033;-73
2023/09/20 06:53:23;;;;;;;16.30;8.00;;;22.20;99.90;;;;;;5051811;28;20376;-73
2023/09/20 06:55:50;;;;;;;16.52;8.63;;;;;;;;;;5051825;28;20017;-72
2023/09/20 06:58:16;;;;;;;18.52;8.30;;;22.80;99.90;;;;;;5051396;28;20053;-74
2023/09/20 07:00:43;;;;;;;29.40;11.07;;;;;;;;;;5051602;28;20376;-73
2023/09/20 07:03:09;;;;;;;17.92;9.18;;;23.20;99.90;;;;;;5051389;28;20025;-73
2023/09/20 07:05:35;;;;;;;24.42;10.63;;;23.10;99.90;;;;;;5051318;28;20037;-73
2023/09/20 07:08:01;;;;;;;18.85;9.15;;;23.00;99.90;;;;;;5051520;28;20044;-73
2023/09/20 07:10:41;;;;;;;17.80;8.38;;;23.10;99.90;;;;;;5051255;28;20072;-74
2023/09/20 07:13:09;;;;;;;19.33;8.95;;;23.20;99.90;;;;;;5049866;28;20092;-73
2023/09/20 07:15:36;;;;;;;19.98;8.57;;;23.50;99.90;;;;;;5051786;28;20029;-74
2023/09/20 07:18:11;;;;;;;17.77;7.95;;;23.10;99.90;;;;;;5054717;28;20028;-73
2023/09/20 07:20:39;;;;;;;17.45;7.63;;;;;;;;;;5055942;28;20060;-73
2023/09/20 07:23:12;;;;;;;14.10;6.40;;;23.40;99.90;;;;;;5055072;28;20028;-73
2023/09/20 07:25:39;;;;;;;13.95;6.63;;;23.50;99.90;;;;;;5055133;28;20033;-72
2023/09/20 07:28:06;;;;;;;16.50;5.50;;;;;;;;;;5029417;28;20373;-73
2023/09/20 07:30:36;;;;;;;15.60;7.00;;;;;;;;;;5055039;28;20037;-74
2023/09/20 07:33:02;;;;;;;11.95;5.85;;;23.60;99.90;;;;;;5055668;28;20033;-73
2023/09/20 07:35:38;;;;;;;14.68;6.22;;;23.50;99.90;;;;;;5054969;28;20108;-73
2023/09/20 07:38:12;;;;;;;18.73;4.95;;;23.80;99.90;;;;;;5055442;28;20028;-73
2023/09/20 07:40:40;;;;;;;18.98;5.47;;;24.20;99.90;;;;;;5054874;28;20526;-73
2023/09/20 07:43:07;;;;;;;12.48;4.78;;;24.50;99.90;;;;;;5054747;28;20049;-73
2023/09/20 07:45:39;;;;;;;10.57;5.05;;;;;;;;;;5055309;28;20033;-73
2023/09/20 07:48:12;;;;;;;10.68;4.75;;;24.70;98.10;;;;;;5055196;28;20021;-73
2023/09/20 07:50:40;;;;;;;8.27;4.78;;;24.80;98.40;;;;;;5055230;28;20028;-74
2023/09/20 07:53:10;;;;;;;8.80;4.40;;;25.00;98.00;;;;;;5055178;28;20158;-73
2023/09/20 07:55:44;;;;;;;10.85;5.00;;;25.10;97.40;;;;;;5054713;28;20438;-73
2023/09/20 07:58:15;;;;;;;6.80;3.80;;;25.20;98.00;;;;;;5055183;28;20029;-73
2023/09/20 08:00:45;;;;;;;10.93;3.97;;;25.40;97.70;;;;;;5055133;28;20112;-72
2023/09/20 08:03:14;;;;;;;3.63;2.60;;;25.40;95.30;;;;;;5054590;28;20033;-72
2023/09/20 08:05:44;;;;;;;6.65;3.35;;;25.40;94.50;;;;;;5054691;28;20080;-73
2023/09/20 08:08:10;;;;;;;4.35;2.50;;;25.50;95.70;;;;;;5054457;28;20028;-73
2023/09/20 08:10:38;;;;;;;9.52;2.50;;;25.60;92.90;;;;;;5054875;28;20169;-72
2023/09/20 08:13:05;;;;;;;8.13;3.60;;;25.60;93.20;;;;;;5054671;28;20027;-73
2023/09/20 08:15:37;;;;;;;7.05;3.30;;;25.50;92.70;;;;;;5054834;28;20553;-72
2023/09/20 08:20:47;;;;;;;7.47;3.33;;;;;;;;;;5053972;28;20025;-74
2023/09/20 09:01:48;;;;;;;8.48;2.15;;;26.10;90.00;;;;;;5053582;28;20020;-73
2023/09/20 09:04:17;;;;;;;4.70;2.15;;;26.20;90.40;;;;;;5053830;28;20483;-73
2023/09/20 09:06:44;;;;;;;8.65;2.28;;;26.40;91.10;;;;;;5053338;28;20025;-73
2023/09/20 09:09:10;;;;;;;5.03;2.33;;;26.60;90.50;;;;;;5053341;28;20028;-73
2023/09/20 09:11:36;;;;;;;6.20;1.92;;;26.20;88.70;;;;;;5053378;28;20055;-73
2023/09/20 09:14:03;;;;;;;8.23;1.45;;;26.60;90.40;;;;;;5053718;28;20079;-73
2023/09/20 09:16:33;;;;;;;4.53;1.65;;;26.50;88.40;;;;;;5051859;28;20032;-73
2023/09/20 09:18:59;;;;;;;4.00;1.73;;;26.70;88.60;;;;;;5053481;28;20098;-73
2023/09/20 09:21:29;;;;;;;16.20;2.30;;;26.60;88.90;;;;;;5039865;28;20116;-73
2023/09/20 09:23:57;;;;;;;4.55;1.50;;;26.50;85.20;;;;;;5053052;28;20025;-73
2023/09/20 09:26:25;;;;;;;3.88;1.70;;;26.40;86.30;;;;;;5051855;28;20037;-73
2023/09/20 09:28:51;;;;;;;3.40;1.50;;;26.40;87.80;;;;;;5052602;28;20040;-73
2023/09/20 09:31:17;;;;;;;1.65;1.17;;;26.40;85.40;;;;;;5053247;28;20071;-73
2023/09/20 09:33:43;;;;;;;6.93;2.47;;;26.60;85.00;;;;;;5052592;28;20086;-73
2023/09/20 09:36:10;;;;;;;1.83;1.38;;;26.70;86.20;;;;;;5052978;28;20021;-73
2023/09/20 09:38:39;;;;;;;5.70;1.40;;;26.80;85.70;;;;;;5053053;28;20036;-72
2023/09/20 09:41:08;;;;;;;1.35;0.82;;;26.90;85.90;;;;;;5052969;28;20017;-73
2023/09/20 09:43:35;;;;;;;2.10;0.93;;;27.00;84.80;;;;;;5041579;28;20089;-73
2023/09/20 09:46:08;;;;;;;4.97;1.17;;;27.10;84.90;;;;;;5032697;28;20040;-73
2023/09/20 09:48:37;;;;;;;2.92;1.25;;;27.20;84.70;;;;;;5033035;28;20491;-73
2023/09/20 09:51:06;;;;;;;3.72;1.25;;;27.20;91.90;;;;;;5031591;28;20500;-73
2023/09/20 09:53:35;;;;;;;5.70;1.50;;;27.20;89.10;;;;;;5032924;28;20033;-73
2023/09/20 09:56:05;;;;;;;8.65;1.13;;;27.20;84.30;;;;;;5049612;28;20021;-73
2023/09/20 09:58:32;;;;;;;2.35;1.08;;;27.30;88.00;;;;;;5052212;28;20037;-74
2023/09/20 10:00:58;;;;;;;7.95;1.65;;;27.40;84.50;;;;;;5052641;28;20009;-73
2023/09/20 10:03:34;;;;;;;4.18;1.50;;;27.30;83.80;;;;;;5052475;28;20606;-73
2023/09/20 10:06:21;;;;;;;3.63;1.20;;;27.20;81.70;;;;;;5052214;28;20384;-73
2023/09/20 10:08:52;;;;;;;5.05;1.90;;;27.30;82.00;;;;;;5052452;28;20036;-73
2023/09/20 10:11:22;;;;;;;5.28;1.20;;;27.40;84.60;;;;;;5051728;28;20361;-73
2023/09/20 10:13:50;;;;;;;7.28;2.92;;;27.30;82.70;;;;;;5052844;28;20025;-73
2023/09/20 10:16:17;;;;;;;2.97;1.30;;;26.60;82.40;;;;;;5052143;28;20110;-73
2023/09/20 10:18:51;;;;;;;2.47;1.50;;;26.90;84.20;;;;;;5052479;28;20029;-72
2023/09/20 10:21:22;;;;;;;2.80;1.40;;;27.20;84.90;;;;;;5050927;28;20049;-73
2023/09/20 10:23:48;;;;;;;4.60;1.63;;;27.20;82.50;;;;;;5051906;28;20083;-73
2023/09/20 10:26:15;;;;;;;4.13;1.77;;;27.20;82.40;;;;;;5051982;28;20021;-74
2023/09/20 10:28:44;;;;;;;5.13;1.55;;;27.30;83.30;;;;;;5052109;28;20033;-73
2023/09/20 10:31:17;;;;;;;5.68;1.30;;;27.50;83.60;;;;;;5052097;28;20029;-73
2023/09/20 10:33:56;;;;;;;2.97;1.70;;;27.40;80.60;;;;;;5052016;28;20029;-73
2023/09/20 10:36:30;;;;;;;2.75;1.52;;;27.30;79.50;;;;;;5051485;28;20041;-74
2023/09/20 10:39:12;;;;;;;4.45;1.33;;;27.40;81.30;;;;;;5052009;28;20469;-74
2023/09/20 10:41:39;;;;;;;;;;;27.20;81.00;;;;;;5039799;28;20033;-73
2023/09/20 10:44:05;;;;;;;6.22;1.80;;;27.30;81.70;;;;;;5050742;28;19923;-73
2023/09/20 10:46:37;;;;;;;2.10;1.58;;;27.50;80.70;;;;;;5052242;28;20051;-73
2023/09/20 10:49:05;;;;;;;;;;;26.70;79.30;;;;;;5052123;28;20524;-73
2023/09/20 10:51:42;;;;;;;4.72;1.70;;;27.10;82.80;;;;;;5051017;28;19909;-73
2023/09/20 10:54:22;;;;;;;2.70;1.25;;;27.40;82.20;;;;;;5051750;28;20032;-73
2023/09/20 10:56:51;;;;;;;4.68;1.42;;;27.40;81.50;;;;;;5051584;28;20495;-73
2023/09/20 10:59:21;;;;;;;5.32;1.88;;;27.50;79.40;;;;;;5052214;28;20361;-73
2023/09/20 11:01:56;;;;;;;3.70;1.52;;;27.50;79.40;;;;;;5051140;28;20123;-73
2023/09/20 11:04:25;;;;;;;3.75;1.33;;;27.40;78.20;;;;;;5051599;28;20514;-73
2023/09/20 11:06:53;;;;;;;2.70;1.35;;;27.40;80.70;;;;;;5051570;28;20102;-73
2023/09/20 11:09:23;;;;;;;4.57;1.50;;;27.30;78.50;;;;;;5051657;28;20076;-72
2023/09/20 11:11:50;;;;;;;1.77;1.20;;;27.40;77.40;;;;;;5051558;28;20025;-73
2023/09/20 11:14:18;;;;;;;5.70;1.67;;;27.40;79.60;;;;;;5051234;28;20069;-72
2023/09/20 11:16:44;;;;;;;4.53;1.40;;;27.50;80.10;;;;;;5052111;28;20013;-73
2023/09/20 11:19:11;;;;;;;4.22;1.77;;;27.60;79.60;;;;;;5051085;28;20021;-73
2023/09/20 11:21:38;;;;;;;3.92;1.92;;;27.60;78.40;;;;;;5051608;28;20112;-73
2023/09/20 11:24:06;;;;;;;3.08;2.08;;;27.60;80.90;;;;;;5051435;28;20044;-73
2023/09/20 11:26:32;;;;;;;4.97;1.50;;;27.60;79.60;;;;;;5051474;28;20433;-73
2023/09/20 11:28:59;;;;;;;4.45;1.85;;;27.30;79.50;;;;;;5050997;28;20090;-73
2023/09/20 11:31:27;;;;;;;4.78;2.03;;;27.50;80.20;;;;;;5051345;28;20104;-73
2023/09/20 11:33:58;;;;;;;5.47;1.98;;;27.40;79.10;;;;;;5051221;28;20025;-72
2023/09/20 11:36:28;;;;;;;5.20;1.53;;;27.40;79.10;;;;;;5051124;28;20029;-72
2023/09/20 11:38:54;;;;;;;4.70;1.80;;;27.40;78.30;;;;;;5051028;28;20254;-73
2023/09/20 11:41:23;;;;;;;6.20;1.80;;;27.20;79.50;;;;;;5051185;28;20033;-73
2023/09/20 11:44:00;;;;;;;2.90;2.10;;;27.50;81.60;;;;;;5050322;28;20040;-73
2023/09/20 11:46:33;;;;;;;4.90;1.80;;;27.50;80.50;;;;;;5051079;28;20062;-73
2023/09/20 11:49:03;;;;;;;3.88;1.70;;;27.60;80.00;;;;;;5050996;28;20025;-73
2023/09/20 11:51:33;;;;;;;4.50;1.73;;;27.40;77.10;;;;;;5050941;28;20021;-73
2023/09/20 11:54:00;;;;;;;4.25;1.63;;;27.60;79.00;;;;;;5051114;28;20025;-73
2023/09/20 11:56:32;;;;;;;6.97;2.17;;;27.50;79.20;;;;;;5050828;28;20588;-73
2023/09/20 11:58:59;;;;;;;4.80;2.00;;;27.50;81.10;;;;;;5051037;28;20032;-73
2023/09/20 12:01:32;;;;;;;19.20;3.08;;;27.50;79.70;;;;;;5050842;28;20071;-73
2023/09/20 12:03:58;;;;;;;3.10;1.70;;;27.60;79.60;;;;;;5053177;28;20028;-72
2023/09/20 12:06:27;;;;;;;7.45;2.22;;;27.60;78.40;;;;;;5054120;28;20544;-72
2023/09/20 12:08:56;;;;;;;3.55;1.83;;;27.40;78.20;;;;;;5054189;28;20028;-73
2023/09/20 12:11:25;;;;;;;8.80;1.98;;;27.50;79.00;;;;;;5053391;28;20075;-73
2023/09/20 12:13:51;;;;;;;5.60;2.70;;;27.30;77.30;;;;;;5054356;28;20041;-73
2023/09/20 12:16:18;;;;;;;6.60;2.63;;;27.40;79.00;;;;;;5054867;28;20040;-73
2023/09/20 12:18:44;;;;;;;3.33;1.85;;;27.50;78.60;;;;;;5054584;28;20104;-72
2023/09/20 12:21:10;;;;;;;5.70;2.30;;;27.50;78.40;;;;;;5054353;28;20017;-73
2023/09/20 12:23:39;;;;;;;5.97;2.08;;;27.20;77.30;;;;;;5054258;28;20029;-73
2023/09/20 12:26:06;;;;;;;1.63;1.35;;;27.20;77.90;;;;;;5054511;28;20391;-73
2023/09/20 12:28:32;;;;;;;2.95;1.23;;;27.30;75.90;;;;;;5054024;28;20036;-73
2023/09/20 12:30:58;;;;;;;4.35;1.90;;;27.30;75.70;;;;;;5054430;28;20558;-72
2023/09/20 12:33:25;;;;;;;3.88;1.48;;;27.30;75.30;;;;;;5053843;28;20071;-72
2023/09/20 12:35:52;;;;;;;5.53;2.20;;;27.40;75.90;;;;;;5053723;28;20052;-73
2023/09/20 12:38:18;;;;;;;3.53;1.90;;;27.30;77.10;;;;;;5054211;28;20029;-73
2023/09/20 12:40:44;;;;;;;3.22;1.80;;;27.20;77.30;;;;;;5054048;28;20375;-73
2023/09/20 12:43:10;;;;;;;5.63;2.40;;;27.20;78.40;;;;;;5054187;28;20037;-73
2023/09/20 12:45:36;;;;;;;3.17;1.40;;;27.30;78.00;;;;;;5053173;28;20508;-73
2023/09/20 12:48:02;;;;;;;6.40;2.38;;;27.30;75.60;;;;;;5053735;28;20021;-73
2023/09/20 12:50:36;;;;;;;4.38;2.58;;;27.20;77.00;;;;;;5053465;28;20024;-72
2023/09/20 12:53:05;;;;;;;4.63;2.08;;;27.30;78.10;;;;;;5052827;28;20036;-73
2023/09/20 12:55:35;;;;;;;4.00;2.10;;;27.20;78.30;;;;;;5053638;28;20029;-73
2023/09/20 12:58:01;;;;;;;5.70;2.35;;;27.20;78.20;;;;;;5053575;28;20025;-73
2023/09/20 13:00:27;;;;;;;7.10;2.58;;;27.20;78.00;;;;;;5053610;28;20025;-74
2023/09/20 13:02:55;;;;;;;4.70;2.25;;;27.00;77.40;;;;;;5053580;28;20388;-73
2023/09/20 13:05:22;;;;;;;2.15;1.80;;;27.00;77.50;;;;;;5053847;28;20420;-74
2023/09/20 13:07:48;;;;;;;4.88;2.00;;;27.20;78.50;;;;;;5053304;28;20032;-74
2023/09/20 13:10:14;;;;;;;7.88;2.50;;;27.20;76.50;;;;;;5053439;28;20021;-73
2023/09/20 13:12:41;;;;;;;8.32;2.53;;;27.20;76.70;;;;;;5053078;28;20112;-73
2023/09/20 13:15:14;;;;;;;7.15;2.35;;;27.30;76.90;;;;;;5053426;28;20074;-73
2023/09/20 13:17:51;;;;;;;4.10;1.95;;;27.30;76.80;;;;;;5051692;28;20043;-73
2023/09/20 13:20:18;;;;;;;4.50;2.13;;;27.40;76.10;;;;;;5043365;28;20074;-73
2023/09/20 13:22:53;;;;;;;5.15;2.83;;;27.40;76.10;;;;;;5049554;28;20464;-74
2023/09/20 13:25:19;;;;;;;12.50;4.13;;;27.60;79.20;;;;;;5030053;28;20119;-73
2023/09/20 13:27:49;;;;;;;5.63;2.75;;;27.70;77.60;;;;;;5051364;28;20096;-73
2023/09/20 13:30:17;;;;;;;14.15;2.40;;;27.70;77.80;;;;;;5053201;28;20494;-73
2023/09/20 13:32:46;;;;;;;3.72;2.30;;;27.70;76.00;;;;;;5034959;28;20380;-74
2023/09/20 13:35:12;;;;;;;5.35;3.33;;;27.50;75.60;;;;;;5033016;28;20036;-73